createdAt,value
2022-08-09T00:00:46.062Z,26.60
2022-08-09T00:02:51.543Z,26.60
2022-08-09T00:05:02.834Z,26.56
2022-08-09T00:07:18.062Z,26.55
2022-08-09T00:09:21.288Z,26.52
2022-08-09T00:11:27.640Z,26.50
2022-08-09T00:13:48.939Z,26.52
2022-08-09T00:15:59.799Z,26.51
2022-08-09T00:18:11.319Z,26.48
2022-08-09T00:20:15.482Z,26.38
2022-08-09T00:22:18.482Z,26.39
2022-08-09T00:24:21.480Z,26.43
2022-08-09T00:26:32.759Z,26.40
2022-08-09T00:28:36.878Z,26.33
2022-08-09T00:30:41.287Z,26.31
2022-08-09T00:32:44.128Z,26.36
2022-08-09T00:34:52.318Z,26.35
2022-08-09T00:36:55.816Z,26.36
2022-08-09T00:39:00.264Z,26.35
2022-08-09T00:41:03.251Z,26.34
2022-08-09T00:44:19.576Z,26.33
2022-08-09T00:45:31.037Z,26.32
2022-08-09T00:47:39.720Z,26.34
2022-08-09T00:49:52.509Z,26.34
2022-08-09T00:52:02.053Z,26.33
2022-08-09T00:54:09.418Z,26.32
2022-08-09T00:56:12.668Z,26.32
2022-08-09T00:58:22.211Z,26.32
2022-08-09T01:00:29.356Z,26.26
2022-08-09T01:02:32.328Z,26.25
2022-08-09T01:04:47.094Z,26.25
2022-08-09T01:06:59.075Z,26.23
2022-08-09T01:09:11.056Z,26.22
2022-08-09T01:11:24.922Z,26.20
2022-08-09T01:13:41.924Z,26.21
2022-08-09T01:15:57.895Z,26.22
2022-08-09T01:18:04.564Z,26.20
2022-08-09T01:20:12.038Z,26.18
2022-08-09T01:22:44.599Z,26.17
2022-08-09T01:24:58.548Z,26.12
2022-08-09T01:27:08.806Z,26.09
2022-08-09T01:29:16.618Z,26.05
2022-08-09T01:32:43.906Z,26.06
2022-08-09T01:33:48.804Z,26.04
2022-08-09T01:35:57.894Z,26.06
2022-08-09T01:38:10.739Z,26.06
2022-08-09T01:40:23.342Z,26.06
2022-08-09T01:42:36.045Z,26.05
2022-08-09T01:44:41.347Z,26.03
2022-08-09T01:46:47.027Z,26.01
2022-08-09T01:48:52.357Z,26.00
2022-08-09T01:50:56.245Z,26.02
2022-08-09T01:53:01.782Z,26.04
2022-08-09T01:55:26.074Z,26.06
2022-08-09T01:57:40.213Z,26.06
2022-08-09T01:59:52.440Z,26.08
2022-08-09T02:01:59.670Z,26.09
2022-08-09T02:04:05.028Z,26.09
2022-08-09T02:06:13.250Z,26.10
2022-08-09T02:08:38.948Z,26.11
2022-08-09T02:10:50.973Z,26.12
2022-08-09T02:12:58.054Z,26.13
2022-08-09T02:15:06.474Z,26.15
2022-08-09T02:17:29.529Z,26.14
2022-08-09T02:19:43.054Z,26.16
2022-08-09T02:21:55.708Z,26.14
2022-08-09T02:24:01.982Z,26.13
2022-08-09T02:26:06.317Z,26.11
2022-08-09T02:28:17.777Z,26.08
2022-08-09T02:30:21.126Z,26.08
2022-08-09T02:32:32.173Z,26.08
2022-08-09T02:34:41.728Z,26.09
2022-08-09T02:36:58.133Z,26.07
2022-08-09T02:39:05.792Z,26.04
2022-08-09T02:41:12.423Z,26.02
2022-08-09T02:43:19.094Z,26.00
2022-08-09T02:45:28.922Z,25.96
2022-08-09T02:47:33.918Z,25.92
2022-08-09T02:50:01.790Z,25.96
2022-08-09T02:52:06.831Z,25.98
2022-08-09T02:54:15.412Z,25.97
2022-08-09T02:56:20.225Z,25.96
2022-08-09T02:58:37.137Z,25.93
2022-08-09T03:00:57.963Z,25.93
2022-08-09T03:03:02.187Z,25.95
2022-08-09T03:05:06.201Z,25.93
2022-08-09T03:07:14.032Z,25.90
2022-08-09T03:09:20.326Z,25.87
2022-08-09T03:12:04.158Z,25.88
2022-08-09T03:14:01.261Z,25.90
2022-08-09T03:16:06.122Z,25.89
2022-08-09T03:18:11.056Z,25.91
2022-08-09T03:20:15.170Z,25.87
2022-08-09T03:22:25.529Z,25.86
2022-08-09T03:24:51.715Z,25.85
2022-08-09T03:26:57.031Z,25.75
2022-08-09T03:29:02.338Z,25.70
2022-08-09T03:31:22.642Z,25.73
2022-08-09T03:33:26.768Z,25.73
2022-08-09T03:36:12.649Z,25.72
2022-08-09T03:38:29.034Z,25.73
2022-08-09T03:40:33.565Z,25.73
2022-08-09T03:42:36.961Z,25.72
2022-08-09T03:44:41.177Z,25.69
2022-08-09T03:46:45.048Z,25.67
2022-08-09T03:48:52.193Z,25.65
2022-08-09T03:50:55.350Z,25.64
2022-08-09T03:53:06.598Z,25.59
2022-08-09T03:55:15.077Z,25.57
2022-08-09T03:57:21.206Z,25.52
2022-08-09T03:59:27.296Z,25.47
2022-08-09T04:01:49.956Z,25.45
2022-08-09T04:04:01.090Z,25.39
2022-08-09T04:06:05.809Z,25.38
2022-08-09T04:08:10.245Z,25.37
2022-08-09T04:10:13.051Z,25.36
2022-08-09T04:12:51.473Z,25.34
2022-08-09T04:15:01.403Z,25.35
2022-08-09T04:17:07.444Z,25.31
2022-08-09T04:19:11.169Z,25.30
2022-08-09T04:21:19.010Z,25.27
2022-08-09T04:23:24.966Z,25.29
2022-08-09T04:25:28.554Z,25.29
2022-08-09T04:27:32.798Z,25.32
2022-08-09T04:29:40.661Z,25.29
2022-08-09T04:31:53.421Z,25.29
2022-08-09T04:34:02.900Z,25.25
2022-08-09T04:36:06.366Z,25.23
2022-08-09T04:38:10.318Z,25.20
2022-08-09T04:40:19.658Z,25.20
2022-08-09T04:42:36.878Z,25.23
2022-08-09T04:44:40.327Z,25.20
2022-08-09T04:46:58.962Z,25.18
2022-08-09T04:49:05.431Z,25.17
2022-08-09T04:51:08.245Z,25.18
2022-08-09T04:53:13.413Z,25.18
2022-08-09T04:55:16.844Z,25.20
2022-08-09T04:57:24.063Z,25.17
2022-08-09T04:59:30.225Z,25.15
2022-08-09T05:01:33.201Z,25.16
2022-08-09T05:03:43.071Z,25.16
2022-08-09T05:05:52.588Z,25.15
2022-08-09T05:08:07.620Z,25.14
2022-08-09T05:10:13.027Z,25.12
2022-08-09T05:12:16.037Z,25.12
2022-08-09T05:14:18.862Z,25.13
2022-08-09T05:16:21.663Z,25.16
2022-08-09T05:18:38.170Z,25.18
2022-08-09T05:20:59.702Z,25.20
2022-08-09T05:23:53.812Z,25.19
2022-08-09T05:25:26.502Z,25.21
2022-08-09T05:27:45.443Z,25.22
2022-08-09T05:29:50.606Z,25.25
2022-08-09T05:31:55.555Z,25.26
2022-08-09T05:34:00.897Z,25.27
2022-08-09T05:36:05.851Z,25.26
2022-08-09T05:38:11.364Z,25.26
2022-08-09T05:40:25.839Z,25.24
2022-08-09T05:42:28.842Z,25.24
2022-08-09T05:44:32.674Z,25.25
2022-08-09T05:46:36.201Z,25.30
2022-08-09T05:48:39.007Z,25.36
2022-08-09T05:50:57.029Z,25.39
2022-08-09T05:53:11.725Z,25.43
2022-08-09T05:55:24.776Z,25.44
2022-08-09T05:57:55.955Z,25.49
2022-08-09T05:59:50.627Z,25.56
2022-08-09T06:01:53.579Z,25.65
2022-08-09T06:04:02.514Z,25.78
2022-08-09T06:06:09.201Z,25.88
2022-08-09T06:08:13.991Z,25.98
2022-08-09T06:10:37.837Z,26.07
2022-08-09T06:12:40.777Z,26.16
2022-08-09T06:14:45.553Z,26.19
2022-08-09T06:16:52.514Z,26.21
2022-08-09T06:18:55.851Z,26.21
2022-08-09T06:21:02.440Z,26.22
2022-08-09T06:23:07.326Z,26.23
2022-08-09T06:25:17.019Z,26.26
2022-08-09T06:27:24.025Z,26.27
2022-08-09T06:29:27.624Z,26.28
2022-08-09T06:31:39.877Z,26.32
2022-08-09T06:33:53.914Z,26.34
2022-08-09T06:35:58.385Z,26.36
2022-08-09T06:38:05.696Z,26.37
2022-08-09T06:40:22.013Z,26.37
2022-08-09T06:42:33.560Z,26.35
2022-08-09T06:44:36.767Z,26.35
2022-08-09T06:46:41.160Z,26.36
2022-08-09T06:48:44.556Z,26.34
2022-08-09T06:50:48.470Z,26.33
2022-08-09T06:52:51.772Z,26.35
2022-08-09T06:54:56.065Z,26.34
2022-08-09T06:56:59.243Z,26.36
2022-08-09T07:00:51.634Z,26.37
2022-08-09T07:01:51.976Z,26.38
2022-08-09T07:03:53.173Z,26.35
2022-08-09T07:06:04.757Z,26.36
2022-08-09T07:08:08.411Z,26.39
2022-08-09T07:10:22.326Z,26.38
2022-08-09T07:12:38.532Z,26.36
2022-08-09T07:14:45.677Z,26.36
2022-08-09T07:16:58.087Z,26.36
2022-08-09T07:19:01.549Z,26.36
2022-08-09T07:21:07.649Z,26.34
2022-08-09T07:23:18.333Z,26.33
2022-08-09T07:25:22.363Z,26.33
2022-08-09T07:27:34.072Z,26.32
2022-08-09T07:29:46.714Z,26.32
2022-08-09T07:31:49.772Z,26.33
2022-08-09T07:33:55.902Z,26.29
2022-08-09T07:35:59.093Z,26.32
2022-08-09T07:38:04.216Z,26.32
2022-08-09T07:40:07.981Z,26.32
2022-08-09T07:42:11.438Z,26.34
2022-08-09T07:44:14.731Z,26.35
2022-08-09T07:46:19.811Z,26.33
2022-08-09T07:48:30.010Z,26.31
2022-08-09T07:50:36.604Z,26.27
2022-08-09T07:52:42.996Z,26.26
2022-08-09T07:54:51.571Z,26.27
2022-08-09T07:56:56.294Z,26.29
2022-08-09T07:59:01.864Z,26.27
2022-08-09T08:01:06.673Z,26.26
2022-08-09T08:03:15.647Z,26.26
2022-08-09T08:05:20.927Z,26.28
2022-08-09T08:08:44.236Z,26.28
2022-08-09T08:09:53.642Z,26.29
2022-08-09T08:12:24.494Z,26.29
2022-08-09T08:14:31.185Z,26.31
2022-08-09T08:16:34.539Z,26.31
2022-08-09T08:18:39.136Z,26.30
2022-08-09T08:20:46.420Z,26.32
2022-08-09T08:22:51.628Z,26.33
2022-08-09T08:24:58.615Z,26.32
2022-08-09T08:27:02.191Z,26.32
2022-08-09T08:29:05.178Z,26.31
2022-08-09T08:31:14.012Z,26.30
2022-08-09T08:33:24.038Z,26.30
2022-08-09T08:35:52.935Z,26.29
2022-08-09T08:38:01.889Z,26.28
2022-08-09T08:40:30.852Z,26.29
2022-08-09T08:42:35.583Z,26.30
2022-08-09T08:44:43.681Z,26.31
2022-08-09T08:46:59.534Z,26.37
2022-08-09T08:49:07.520Z,26.40
2022-08-09T08:51:18.243Z,26.44
2022-08-09T08:53:22.351Z,26.44
2022-08-09T08:55:26.567Z,26.39
2022-08-09T08:57:29.758Z,26.40
2022-08-09T08:59:46.828Z,26.39
2022-08-09T09:01:56.635Z,26.38
2022-08-09T09:04:01.728Z,26.39
2022-08-09T09:06:07.334Z,26.42
2022-08-09T09:08:30.893Z,26.43
2022-08-09T09:10:37.263Z,26.44
2022-08-09T09:12:42.498Z,26.44
2022-08-09T09:14:49.820Z,26.46
2022-08-09T09:16:56.346Z,26.47
2022-08-09T09:19:37.275Z,26.50
2022-08-09T09:21:26.283Z,26.49
2022-08-09T09:23:42.316Z,26.53
2022-08-09T09:26:01.002Z,26.57
2022-08-09T09:28:10.939Z,26.55
2022-08-09T09:30:32.973Z,26.58
2022-08-09T09:32:40.317Z,26.57
2022-08-09T09:34:45.143Z,26.60
2022-08-09T09:36:54.017Z,26.59
2022-08-09T09:38:59.340Z,26.62
2022-08-09T09:41:03.143Z,26.63
2022-08-09T09:43:07.579Z,26.64
2022-08-09T09:45:25.624Z,26.66
2022-08-09T09:47:32.737Z,26.68
2022-08-09T09:50:13.218Z,26.72
2022-08-09T09:52:05.673Z,26.75
2022-08-09T09:54:22.702Z,26.77
2022-08-09T09:56:33.851Z,26.79
2022-08-09T09:58:47.155Z,26.80
2022-08-09T10:00:58.429Z,26.81
2022-08-09T10:03:11.434Z,26.81
2022-08-09T10:05:15.326Z,26.83
2022-08-09T10:07:31.575Z,26.86
2022-08-09T10:09:54.521Z,26.86
2022-08-09T10:12:14.327Z,26.86
2022-08-09T10:14:33.691Z,26.87
2022-08-09T10:16:57.101Z,26.89
2022-08-09T10:19:04.345Z,26.88
2022-08-09T10:21:11.976Z,26.89
2022-08-09T10:23:21.142Z,26.90
2022-08-09T10:25:34.557Z,26.94
2022-08-09T10:27:56.730Z,26.97
2022-08-09T10:30:49.466Z,26.97
2022-08-09T10:32:40.389Z,26.98
2022-08-09T10:34:47.189Z,27.01
2022-08-09T10:36:56.769Z,27.02
2022-08-09T10:39:00.617Z,27.04
2022-08-09T10:41:05.890Z,27.03
2022-08-09T10:43:13.011Z,27.04
2022-08-09T10:45:22.380Z,27.05
2022-08-09T10:48:14.379Z,27.05
2022-08-09T10:50:09.867Z,27.08
2022-08-09T10:52:30.681Z,27.12
2022-08-09T10:54:33.513Z,27.14
2022-08-09T10:56:39.860Z,27.17
2022-08-09T10:58:45.036Z,27.17
2022-08-09T11:01:10.927Z,27.20
2022-08-09T11:03:51.308Z,27.21
2022-08-09T11:06:24.595Z,27.25
2022-08-09T11:08:48.005Z,27.26
2022-08-09T11:11:01.013Z,27.27
2022-08-09T11:13:49.145Z,27.27
2022-08-09T11:15:50.719Z,27.29
2022-08-09T11:18:04.987Z,27.30
2022-08-09T11:20:22.535Z,27.30
2022-08-09T11:23:10.355Z,27.33
2022-08-09T11:25:14.825Z,27.32
2022-08-09T11:28:04.929Z,27.34
2022-08-09T11:30:04.676Z,27.36
2022-08-09T11:32:13.706Z,27.37
2022-08-09T11:34:44.124Z,27.38
2022-08-09T11:36:52.190Z,27.40
2022-08-09T11:39:04.892Z,27.41
2022-08-09T11:41:38.250Z,27.42
2022-08-09T11:43:49.611Z,27.42
2022-08-09T11:45:56.245Z,27.41
2022-08-09T11:48:11.121Z,27.43
2022-08-09T11:50:53.735Z,27.43
2022-08-09T11:53:59.451Z,27.44
2022-08-09T11:56:02.914Z,27.45
2022-08-09T11:58:32.523Z,27.47
2022-08-09T12:00:37.118Z,27.48
2022-08-09T12:02:44.842Z,27.49
2022-08-09T12:04:54.631Z,27.52
2022-08-09T12:07:08.199Z,27.53
2022-08-09T12:11:35.750Z,27.57
2022-08-09T12:14:10.258Z,27.59
2022-08-09T12:16:30.702Z,27.60
2022-08-09T12:18:45.594Z,27.63
2022-08-09T12:21:00.348Z,27.65
2022-08-09T12:23:05.530Z,27.65
2022-08-09T12:25:15.196Z,27.66
2022-08-09T12:28:58.591Z,27.66
2022-08-09T12:29:58.577Z,27.67
2022-08-09T12:32:08.090Z,27.68
2022-08-09T12:34:11.488Z,27.68
2022-08-09T12:36:27.319Z,27.67
2022-08-09T12:38:38.094Z,27.68
2022-08-09T12:40:46.629Z,27.69
2022-08-09T12:42:57.467Z,27.71
2022-08-09T12:45:02.677Z,27.71
2022-08-09T12:47:26.328Z,27.72
2022-08-09T12:49:29.599Z,27.73
2022-08-09T12:52:01.709Z,27.73
2022-08-09T12:54:00.112Z,27.73
2022-08-09T12:56:39.509Z,27.71
2022-08-09T12:58:38.813Z,27.73
2022-08-09T13:00:47.512Z,27.74
2022-08-09T13:02:53.430Z,27.74
2022-08-09T13:05:04.243Z,27.75
2022-08-09T13:07:16.697Z,27.77
2022-08-09T13:09:26.419Z,27.78
2022-08-09T13:11:35.238Z,27.78
2022-08-09T13:14:43.945Z,27.78
2022-08-09T13:16:11.985Z,27.79
2022-08-09T13:18:17.506Z,27.81
2022-08-09T13:20:37.678Z,27.81
2022-08-09T13:23:04.800Z,27.83
2022-08-09T13:25:19.666Z,27.85
2022-08-09T13:27:39.605Z,27.85
2022-08-09T13:30:49.078Z,27.87
2022-08-09T13:32:27.554Z,27.90
2022-08-09T13:34:33.756Z,27.88
2022-08-09T13:36:43.184Z,27.88
2022-08-09T13:38:56.151Z,27.88
2022-08-09T13:41:50.894Z,27.89
2022-08-09T13:43:35.604Z,27.89
2022-08-09T13:46:42.379Z,27.91
2022-08-09T13:48:10.939Z,27.91
2022-08-09T13:50:30.131Z,27.90
2022-08-09T13:52:35.051Z,27.91
2022-08-09T13:54:43.025Z,27.93
2022-08-09T13:57:01.713Z,27.94
2022-08-09T13:59:09.672Z,27.96
2022-08-09T14:02:01.330Z,27.96
2022-08-09T14:04:03.576Z,27.97
2022-08-09T14:06:02.616Z,27.99
2022-08-09T14:08:07.032Z,27.99
2022-08-09T14:10:17.307Z,28.01
2022-08-09T14:12:38.735Z,28.02
2022-08-09T14:14:44.268Z,27.99
2022-08-09T14:16:58.730Z,28.01
2022-08-09T14:19:01.899Z,28.04
2022-08-09T14:21:05.890Z,28.06
2022-08-09T14:23:09.653Z,28.08
2022-08-09T14:25:24.320Z,28.07
2022-08-09T14:27:37.087Z,28.06
2022-08-09T14:30:34.646Z,28.07
2022-08-09T14:32:28.773Z,28.21
2022-08-09T14:34:34.294Z,28.28
2022-08-09T14:36:42.956Z,28.29
2022-08-09T14:38:46.620Z,28.27
2022-08-09T14:41:01.768Z,28.28
2022-08-09T14:43:18.900Z,28.32
2022-08-09T14:47:00.986Z,28.37
2022-08-09T14:47:57.524Z,28.52
2022-08-09T14:50:03.076Z,28.59
2022-08-09T14:52:06.435Z,28.59
2022-08-09T14:54:10.339Z,28.76
2022-08-09T14:56:13.423Z,28.89
2022-08-09T14:58:16.412Z,28.94
2022-08-09T15:00:20.123Z,28.94
2022-08-09T15:02:23.439Z,29.10
2022-08-09T15:04:28.159Z,29.15
2022-08-09T15:06:32.236Z,29.20
2022-08-09T15:08:35.336Z,29.32
2022-08-09T15:10:38.741Z,29.40
2022-08-09T15:12:44.999Z,29.41
2022-08-09T15:14:48.168Z,29.30
2022-08-09T15:16:53.164Z,29.31
2022-08-09T15:18:56.230Z,29.44
2022-08-09T15:21:55.136Z,29.55
2022-08-09T15:24:01.091Z,29.60
2022-08-09T15:25:50.048Z,29.50
2022-08-09T15:28:00.500Z,29.45
2022-08-09T15:30:58.206Z,29.49
2022-08-09T15:32:29.503Z,29.60
2022-08-09T15:34:35.449Z,29.64
2022-08-09T15:36:47.926Z,29.64
2022-08-09T15:38:51.386Z,29.75
2022-08-09T15:40:54.340Z,29.77
2022-08-09T15:42:57.262Z,29.80
2022-08-09T15:45:03.317Z,29.82
2022-08-09T15:47:07.507Z,29.77
2022-08-09T15:49:22.860Z,29.68
2022-08-09T15:51:44.647Z,29.76
2022-08-09T15:54:05.479Z,29.71
2022-08-09T15:56:28.761Z,29.76
2022-08-09T15:58:33.777Z,29.79
2022-08-09T16:00:39.939Z,29.82
2022-08-09T16:02:53.555Z,29.83
2022-08-09T16:04:57.196Z,29.81
2022-08-09T16:07:01.917Z,29.78
2022-08-09T16:09:06.991Z,29.82
2022-08-09T16:11:09.977Z,29.82
2022-08-09T16:13:18.639Z,29.93
2022-08-09T16:16:04.384Z,29.90
2022-08-09T16:17:48.369Z,29.95
2022-08-09T16:20:04.445Z,29.95
2022-08-09T16:22:15.863Z,30.06
2022-08-09T16:24:32.975Z,30.12
2022-08-09T16:26:37.926Z,30.09
2022-08-09T16:28:41.050Z,30.02
2022-08-09T16:30:44.993Z,30.08
2022-08-09T16:33:11.703Z,30.05
2022-08-09T16:35:53.305Z,30.03
2022-08-09T16:37:55.091Z,30.03
2022-08-09T16:40:05.271Z,29.99
2022-08-09T16:42:08.996Z,29.99
2022-08-09T16:44:18.990Z,30.02
2022-08-09T16:46:24.619Z,30.05
2022-08-09T16:48:42.731Z,30.07
2022-08-09T16:50:59.446Z,30.07
2022-08-09T16:53:11.880Z,30.05
2022-08-09T16:55:16.631Z,30.07
2022-08-09T16:57:21.559Z,30.04
2022-08-09T16:59:24.425Z,30.05
2022-08-09T17:01:27.944Z,30.08
2022-08-09T17:03:37.026Z,30.12
2022-08-09T17:06:06.887Z,30.12
2022-08-09T17:08:46.509Z,30.15
2022-08-09T17:10:27.151Z,30.17
2022-08-09T17:12:30.502Z,30.13
2022-08-09T17:14:34.570Z,30.12
2022-08-09T17:16:38.558Z,30.12
2022-08-09T17:18:41.440Z,30.09
2022-08-09T17:20:52.927Z,30.11
2022-08-09T17:22:56.103Z,30.06
2022-08-09T17:25:03.801Z,30.01
2022-08-09T17:27:15.547Z,29.99
2022-08-09T17:29:20.123Z,29.96
2022-08-09T17:31:23.668Z,29.97
2022-08-09T17:33:26.567Z,29.97
2022-08-09T17:35:40.905Z,29.94
2022-08-09T17:38:14.380Z,29.95
2022-08-09T17:40:16.969Z,29.97
2022-08-09T17:42:41.767Z,30.00
2022-08-09T17:44:49.050Z,30.02
2022-08-09T17:46:55.765Z,30.01
2022-08-09T17:48:59.227Z,30.00
2022-08-09T17:51:09.693Z,30.00
2022-08-09T17:53:22.406Z,30.00
2022-08-09T17:55:47.389Z,30.01
2022-08-09T17:58:03.626Z,29.99
2022-08-09T18:00:09.760Z,29.98
2022-08-09T18:02:22.930Z,29.96
2022-08-09T18:04:31.946Z,29.94
2022-08-09T18:06:35.613Z,29.93
2022-08-09T18:08:40.689Z,29.90
2022-08-09T18:10:46.225Z,29.88
2022-08-09T18:13:42.910Z,29.86
2022-08-09T18:15:50.381Z,29.82
2022-08-09T18:18:03.768Z,29.80
2022-08-09T18:20:56.590Z,29.77
2022-08-09T18:22:33.825Z,29.74
2022-08-09T18:24:37.367Z,29.70
2022-08-09T18:26:46.902Z,29.68
2022-08-09T18:30:37.728Z,29.65
2022-08-09T18:31:14.995Z,29.63
2022-08-09T18:33:28.393Z,29.58
2022-08-09T18:35:48.167Z,29.56
2022-08-09T18:37:54.844Z,29.54
2022-08-09T18:39:57.983Z,29.50
2022-08-09T18:42:05.429Z,29.48
2022-08-09T18:44:13.843Z,29.45
2022-08-09T18:46:47.908Z,29.44
2022-08-09T18:48:42.545Z,29.41
2022-08-09T18:50:45.678Z,29.40
2022-08-09T18:52:50.987Z,29.38
2022-08-09T18:54:53.947Z,29.35
2022-08-09T18:56:56.761Z,29.32
2022-08-09T18:59:09.518Z,29.28
2022-08-09T19:01:13.688Z,29.25
2022-08-09T19:03:16.559Z,29.23
2022-08-09T19:06:01.886Z,29.22
2022-08-09T19:07:59.394Z,29.21
2022-08-09T19:10:16.571Z,29.18
2022-08-09T19:12:21.222Z,29.16
2022-08-09T19:14:29.505Z,29.15
2022-08-09T19:16:36.626Z,29.12
2022-08-09T19:18:45.296Z,29.10
2022-08-09T19:20:56.718Z,29.09
2022-08-09T19:23:01.246Z,29.06
2022-08-09T19:25:11.557Z,29.02
2022-08-09T19:27:29.080Z,29.01
2022-08-09T19:29:38.362Z,28.98
2022-08-09T19:31:59.914Z,28.96
2022-08-09T19:34:03.151Z,28.93
2022-08-09T19:36:11.788Z,28.91
2022-08-09T19:38:16.311Z,28.89
2022-08-09T19:40:19.648Z,28.87
2022-08-09T19:42:23.973Z,28.83
2022-08-09T19:44:31.229Z,28.80
2022-08-09T19:46:35.741Z,28.75
2022-08-09T19:49:00.842Z,28.73
2022-08-09T19:51:18.037Z,28.70
2022-08-09T19:53:21.084Z,28.65
2022-08-09T19:55:25.803Z,28.63
2022-08-09T19:57:33.829Z,28.61
2022-08-09T19:59:57.214Z,28.58
2022-08-09T20:02:07.415Z,28.56
2022-08-09T20:04:36.556Z,28.53
2022-08-09T20:06:40.027Z,28.51
2022-08-09T20:08:45.488Z,28.48
2022-08-09T20:10:48.397Z,28.45
2022-08-09T20:12:52.086Z,28.42
2022-08-09T20:14:55.011Z,28.41
2022-08-09T20:16:58.002Z,28.39
2022-08-09T20:19:42.808Z,28.38
2022-08-09T20:21:40.857Z,28.34
2022-08-09T20:23:48.099Z,28.32
2022-08-09T20:25:55.279Z,28.30
2022-08-09T20:27:58.212Z,28.31
2022-08-09T20:30:03.477Z,28.28
2022-08-09T20:32:30.588Z,28.27
2022-08-09T20:34:30.439Z,28.25
2022-08-09T20:36:34.606Z,28.24
2022-08-09T20:39:18.909Z,28.23
2022-08-09T20:41:02.223Z,28.20
2022-08-09T20:43:18.250Z,28.16
2022-08-09T20:46:01.974Z,28.12
2022-08-09T20:47:50.257Z,28.08
2022-08-09T20:49:53.068Z,28.07
